Terminal Aerodrome Forecast
Issued by NWS

Home | Current Version | Previous Version | Text Only | Print | Product List | Glossary On
Versions: 1 2 3 4 5 6 7 8 9 10 11 12 13 14
028
FTUS43 KILX 032336
TAFCMI
TAF
KCMI 032336Z 0400/0424 08005KT P6SM SCT025 BKN140
     FM041200 10004KT P6SM VCSH OVC050
     FM041500 12005KT 1 1/2SM -RASN BR OVC015
     FM041800 13005KT 1SM -RA OVC008
     FM042100 14004KT P6SM OVC006=

USA.gov is the U.S. government's official web portal to all federal, state and local government web resources and services.